Latest Weather Observations for Mount Baw Baw

IDV60801

Issued at 11:02 am EDT Monday 2 February 2015 (issued every 30 minutes, with the page automatically refreshed every 10 minutes)

About weather observations | Map of weather stations | Latest weather observations for VIC | Other Formats
Station Details ID: 085291 Name: MOUNT BAW BAW Lat: -37.84 Lon: 146.27 Height: 1561.0 m
Data from the previous 72 hours. | See also: Recent months at Mount Baw Baw
Date/Time
EDT
Temp
°C
App
Temp
°C
Dew
Point
Rel
Hum
%
Delta-T
°C
Wind Press
QNH
hPa
Press
MSL
hPa
Rain
since 9 am
mm
Dir
 
Spd
km/h
Gust
km/h
Spd
kts
Gust
kts
02/11:00am 8.5 6.3 7.7 95 0.4 E 9 17 - 9 - - 0.0
02/10:30am 8.0 5.3 7.2 95 0.4 ENE 11 22 - 12 - - 0.0
02/10:00am 7.1 4.7 7.0 99 0.1 E 9 17 - 9 - - 0.0
02/09:30am 6.5 3.6 6.4 99 0.0 ENE 11 19 - 10 - - 0.0
02/08:30am 5.7 2.6 5.6 99 0.0 ENE 11 20 - 11 - - 0.0
02/08:00am 5.7 2.6 5.6 99 0.0 E 11 20 - 11 - - 0.0
02/07:30am 5.6 2.5 5.5 99 0.0 ENE 11 20 - 11 - - 0.0
02/07:00am 5.3 2.5 5.2 99 0.0 E 9 15 - 8 - - 0.0
02/06:30am 5.2 2.4 5.1 99 0.0 E 9 17 - 9 - - 0.0
02/06:00am 5.1 1.9 5.0 99 0.0 E 11 17 - 9 - - 0.0
02/05:30am 4.9 1.3 4.8 99 0.0 ENE 13 22 - 12 - - 0.0
02/05:00am 5.0 1.8 4.9 99 0.0 E 11 17 - 9 - - 0.0
02/04:30am 5.1 2.6 5.0 99 0.0 ESE 7 13 - 7 - - 0.0
02/04:00am 5.0 2.1 4.9 99 0.0 ESE 9 17 - 9 - - 0.0
02/03:30am 5.2 2.8 5.1 99 0.0 ESE 7 15 - 8 - - 0.0
02/03:00am 5.6 2.9 5.5 99 0.0 ESE 9 17 - 9 - - 0.0
02/02:30am 5.4 2.6 5.3 99 0.0 E 9 15 - 8 - - 0.0
02/02:00am 5.3 2.9 5.2 99 0.0 E 7 13 - 7 - - 0.0
02/01:30am 5.3 2.5 5.2 99 0.0 E 9 19 - 10 - - 0.0
02/01:00am 5.4 2.6 5.3 99 0.0 ESE 9 17 - 9 - - 0.0
02/12:30am 5.6 2.9 5.5 99 0.0 ESE 9 17 - 9 - - 0.0
02/12:00am 5.6 2.9 5.5 99 0.0 ESE 9 15 - 8 - - 0.0
 
Date/Time
EDT
Temp
°C
App
Temp
°C
Dew
Point
Rel
Hum
%
Delta-T
°C
Wind Press
QNH
hPa
Press
MSL
hPa
Rain
since 9 am
mm
Dir
 
Spd
km/h
Gust
km/h
Spd
kts
Gust
kts
01/11:30pm 5.9 3.2 5.8 99 0.0 ESE 9 19 - 10 - - 0.0
01/11:00pm 6.4 3.8 6.3 99 0.0 E 9 17 - 9 - - 0.0
01/10:30pm 6.6 4.1 6.5 99 0.0 E 9 20 - 11 - - 0.0
01/10:00pm 7.2 5.2 7.1 99 0.1 ESE 7 13 - 7 - - 0.0
01/09:30pm 7.4 5.4 7.3 99 0.1 ESE 7 13 - 7 - - 0.0
01/09:00pm 7.6 5.7 7.5 99 0.1 SE 7 15 - 8 - - 0.0
01/08:30pm 7.9 6.3 7.8 99 0.1 ESE 6 19 - 10 - - 0.0
01/08:00pm 8.5 6.7 8.1 97 0.2 SSE 7 11 - 6 - - 0.0
01/07:30pm 9.2 7.4 7.8 91 0.7 SSE 7 13 - 7 - - 0.0
01/07:00pm 9.4 7.6 8.0 91 0.7 SE 7 13 - 7 - - 0.0
01/06:30pm 9.6 8.0 8.0 90 0.8 SSE 6 11 - 6 - - 0.0
01/06:00pm 10.1 8.7 7.3 83 1.5 SSE 4 11 - 6 - - 0.0
01/05:30pm 10.9 8.6 7.6 80 1.7 SSW 9 15 - 8 - - 0.0
01/05:00pm 11.2 8.7 8.1 81 1.7 S 11 17 - 9 - - 0.0
01/04:30pm 12.0 9.1 6.7 70 2.8 SSW 11 20 - 11 - - 0.0
01/04:00pm 10.3 8.4 8.9 91 0.8 S 9 19 - 10 - - 0.0
01/03:30pm 11.1 8.7 8.5 84 1.4 SSW 11 20 - 11 - - 0.0
01/03:00pm 11.1 9.2 9.2 88 1.0 S 9 15 - 8 - - 0.0
01/02:30pm 11.1 8.8 7.6 79 1.8 S 9 17 - 9 - - 0.0
01/02:00pm 10.7 9.2 9.0 89 0.9 SSW 7 13 - 7 - - 0.0
01/01:30pm 10.7 8.8 6.5 75 2.2 S 6 9 - 5 - - 0.0
01/01:00pm 13.0 11.2 7.9 71 2.7 SSE 7 13 - 7 - - 0.0
01/12:30pm 11.0 8.6 8.8 86 1.2 E 11 19 - 10 - - 0.0
01/12:00pm 8.4 6.0 7.2 92 0.6 ENE 9 17 - 9 - - 0.0
01/11:30am 9.4 7.9 9.3 99 0.1 E 7 15 - 8 - - 0.0
01/11:00am 9.0 7.1 8.9 99 0.1 ENE 9 13 - 7 - - 0.0
01/10:30am 8.5 6.8 8.4 99 0.1 E 7 13 - 7 - - 0.0
01/10:00am 7.7 5.8 7.6 99 0.1 ENE 7 13 - 7 - - 0.0
01/09:30am 7.2 5.4 7.1 99 0.1 E 6 9 - 5 - - 0.0
01/09:00am 7.2 5.2 7.1 99 0.1 ENE 7 13 - 7 - - 4.0
01/08:30am 5.4 3.2 5.3 99 0.0 ENE 6 7 - 4 - - 4.0
01/08:00am 5.1 2.6 5.0 99 0.0 S 7 9 - 5 - - 4.0
01/07:30am 5.0 2.1 4.9 99 0.0 S 9 13 - 7 - - 4.0
01/07:00am 4.6 0.9 4.5 99 0.0 SSW 13 19 - 10 - - 4.0
01/06:30am 4.2 1.2 4.1 99 0.0 SSW 9 13 - 7 - - 4.0
01/06:00am 4.5 1.6 4.4 99 0.0 SSW 9 15 - 8 - - 4.0
01/05:30am 4.6 0.9 4.5 99 0.0 SW 13 20 - 11 - - 4.0
01/05:00am 4.8 1.5 4.7 99 0.0 SSW 11 19 - 10 - - 3.8
01/04:30am 5.1 1.9 5.0 99 0.0 SSW 11 17 - 9 - - 3.6
01/04:00am 5.3 2.1 5.2 99 0.0 SSW 11 13 - 7 - - 3.2
01/03:30am 5.3 2.1 5.2 99 0.0 SSW 11 15 - 8 - - 2.8
01/03:00am 5.2 1.6 5.1 99 0.0 SSW 13 17 - 9 - - 2.8
01/02:30am 5.0 1.4 4.9 99 0.0 SSW 13 17 - 9 - - 2.8
01/02:00am 4.9 2.0 4.8 99 0.0 SSW 9 13 - 7 - - 2.8
01/01:30am 4.9 2.0 4.8 99 0.0 SW 9 13 - 7 - - 2.8
01/01:00am 5.1 2.3 5.0 99 0.0 SW 9 15 - 8 - - 2.8
01/12:30am 5.1 1.9 5.0 99 0.0 SW 11 15 - 8 - - 2.8
01/12:00am 5.4 1.9 5.3 99 0.0 SSW 13 17 - 9 - - 2.6
 
Date/Time
EDT
Temp
°C
App
Temp
°C
Dew
Point
Rel
Hum
%
Delta-T
°C
Wind Press
QNH
hPa
Press
MSL
hPa
Rain
since 9 am
mm
Dir
 
Spd
km/h
Gust
km/h
Spd
kts
Gust
kts
31/11:30pm 5.6 1.7 5.5 99 0.0 SSW 15 20 - 11 - - 2.6
31/11:00pm 5.9 2.5 5.8 99 0.0 SW 13 20 - 11 - - 2.6
31/10:30pm 6.0 1.8 5.9 99 0.0 SSW 17 24 - 13 - - 2.4
31/10:00pm 6.1 1.6 6.0 99 0.0 SSW 19 24 - 13 - - 2.4
31/09:30pm 6.2 2.1 6.1 99 0.0 SSW 17 24 - 13 - - 2.4
31/09:00pm 6.3 2.2 6.2 99 0.0 SSW 17 22 - 12 - - 2.4
31/08:30pm 6.4 2.3 6.3 99 0.0 SSW 17 20 - 11 - - 2.4
31/08:00pm 6.3 2.2 6.2 99 0.0 SSW 17 22 - 12 - - 2.2
31/07:30pm 6.4 2.7 6.3 99 0.0 SSW 15 24 - 13 - - 2.2
31/07:00pm 6.6 2.6 6.5 99 0.0 SSW 17 24 - 13 - - 2.2
31/06:30pm 6.7 2.7 6.6 99 0.1 SSW 17 28 - 15 - - 2.2
31/06:00pm 7.1 3.9 7.0 99 0.1 SSW 13 20 - 11 - - 1.8
31/05:30pm 7.5 4.4 7.4 99 0.1 SSW 13 20 - 11 - - 1.2
31/05:00pm 7.4 4.3 7.3 99 0.1 SSW 13 22 - 12 - - 0.8
31/04:30pm 7.5 4.8 7.4 99 0.1 SSW 11 17 - 9 - - 0.8
31/04:00pm 7.6 4.6 7.5 99 0.1 SSW 13 19 - 10 - - 0.2
31/03:30pm 8.4 5.5 8.3 99 0.1 SSW 13 19 - 10 - - 0.2
31/03:00pm 7.5 5.2 7.4 99 0.1 SSW 9 15 - 8 - - 0.0
31/02:30pm 7.6 4.9 7.5 99 0.1 SSW 11 19 - 10 - - 0.0
31/02:00pm 7.2 4.0 6.9 98 0.2 SSW 13 20 - 11 - - 0.0
31/01:30pm 7.0 3.8 6.9 99 0.1 SSW 13 22 - 12 - - 0.0
31/01:00pm 7.6 4.1 7.3 98 0.2 SSW 15 26 - 14 - - 0.0
31/12:30pm 8.0 4.2 7.7 98 0.2 SSW 17 28 - 15 - - 0.0
31/12:00pm 8.3 4.7 8.2 99 0.1 SSW 17 24 - 13 - - 0.0
31/11:30am 7.5 3.7 7.4 99 0.1 SSW 17 26 - 14 - - 0.0
31/11:00am 7.6 3.7 7.3 98 0.2 SSW 17 24 - 13 - - 0.0
31/10:30am 6.2 2.5 6.1 99 0.0 SSW 15 22 - 12 - - 0.0
31/10:00am 5.7 1.5 5.6 99 0.0 SSW 17 24 - 13 - - 0.0
31/09:30am 5.1 0.7 5.0 99 0.0 SSW 17 26 - 14 - - 0.0
31/09:00am 4.6 0.1 4.0 96 0.3 SSW 17 24 - 13 - - -
31/08:30am 4.1 -0.8 4.0 99 0.0 SSW 19 26 - 14 - - -
31/08:00am 4.1 -0.4 4.0 99 0.0 SSW 17 22 - 12 - - -
31/07:30am 3.1 -2.0 3.0 99 0.0 SSW 19 26 - 14 - - -
31/07:00am 3.0 -2.1 2.9 99 0.0 SSW 19 24 - 13 - - -
31/06:30am 3.0 -2.1 2.9 99 0.0 SSW 19 30 - 16 - - -
31/06:00am 2.7 -1.7 2.6 99 0.0 SSW 15 22 - 12 - - -
31/05:30am 2.8 -1.6 2.7 99 0.0 S 15 22 - 12 - - -
31/05:00am 2.5 -2.0 2.4 99 0.0 S 15 24 - 13 - - -
31/04:30am 2.6 -1.8 2.5 99 0.0 S 15 20 - 11 - - -
31/04:00am 3.1 -1.2 3.0 99 0.0 S 15 19 - 10 - - -
31/03:30am 3.6 -1.4 3.5 99 0.0 SSW 19 30 - 16 - - -
31/03:00am 3.4 -0.9 3.3 99 0.0 SSW 15 20 - 11 - - 0.2
31/02:30am 2.7 -2.1 2.6 99 0.0 SSW 17 22 - 12 - - 0.2
31/02:00am 3.0 -1.0 2.9 99 0.0 S 13 19 - 10 - - 0.2
31/01:30am 3.0 -1.7 2.9 99 0.0 SSW 17 26 - 14 - - 0.2
31/01:00am 3.4 -1.3 3.3 99 0.0 SSW 17 24 - 13 - - 0.2
31/12:30am 3.0 -1.0 2.9 99 0.0 S 13 22 - 12 - - 0.2
31/12:00am 3.2 -1.5 3.1 99 0.0 SSW 17 24 - 13 - - 0.2
 
Date/Time
EDT
Temp
°C
App
Temp
°C
Dew
Point
Rel
Hum
%
Delta-T
°C
Wind Press
QNH
hPa
Press
MSL
hPa
Rain
since 9 am
mm
Dir
 
Spd
km/h
Gust
km/h
Spd
kts
Gust
kts
30/11:30pm 3.2 -1.9 3.1 99 0.0 SSW 19 26 - 14 - - 0.2
30/11:00pm 3.3 -1.0 3.2 99 0.0 SSW 15 22 - 12 - - 0.2
30/10:30pm 3.9 -0.7 3.8 99 0.0 SW 17 28 - 15 - - 0.2
30/10:00pm 3.9 -1.1 3.8 99 0.0 SW 19 26 - 14 - - 0.2
30/09:30pm 4.2 -0.3 4.1 99 0.0 SW 17 28 - 15 - - 0.2
30/09:00pm 4.3 -0.2 4.2 99 0.0 SSW 17 24 - 13 - - 0.2
30/08:30pm 4.6 0.2 4.5 99 0.0 SSW 17 26 - 14 - - 0.2
30/08:00pm 4.7 -0.1 4.6 99 0.0 SSW 19 28 - 15 - - 0.2
30/07:30pm 4.9 0.5 4.8 99 0.0 SW 17 24 - 13 - - 0.2
30/07:00pm 4.8 0.4 4.7 99 0.0 SW 17 28 - 15 - - 0.2
30/06:30pm 4.6 0.2 4.5 99 0.0 SW 17 26 - 14 - - 0.2
30/06:00pm 5.1 1.1 5.0 99 0.0 SSW 15 22 - 12 - - 0.2
30/05:30pm 5.1 1.5 5.0 99 0.0 SSW 13 22 - 12 - - 0.2
30/05:00pm 4.7 0.6 4.6 99 0.0 SSW 15 22 - 12 - - 0.2
30/04:30pm 4.5 0.8 4.4 99 0.0 SSW 13 17 - 9 - - 0.2
30/04:00pm 4.5 1.2 4.4 99 0.0 SW 11 13 - 7 - - 0.2
30/03:30pm 4.5 0.8 4.4 99 0.0 SSW 13 24 - 13 - - 0.2
30/03:00pm 4.3 0.2 4.2 99 0.0 SW 15 22 - 12 - - 0.2
30/02:30pm 4.0 0.2 3.9 99 0.0 SW 13 19 - 10 - - 0.2
30/02:00pm 4.5 0.8 4.4 99 0.0 SSW 13 19 - 10 - - 0.2
30/01:30pm 4.3 0.2 4.2 99 0.0 SSW 15 24 - 13 - - 0.2
30/01:00pm 4.6 0.9 4.5 99 0.0 SSW 13 19 - 10 - - 0.2
30/12:30pm 3.9 0.5 3.8 99 0.0 SSW 11 17 - 9 - - 0.0
30/12:00pm 4.8 1.1 4.7 99 0.0 SSW 13 20 - 11 - - 0.0
30/11:30am 4.6 1.3 4.5 99 0.0 S 11 19 - 10 - - 0.0

Other Formats:

Comma delimited format used in spreadsheet applications
http://www.bom.gov.au/fwo/IDV60801/IDV60801.95901.axf

JavaScript Object Notation format (JSON) in row-major order
http://www.bom.gov.au/fwo/IDV60801/IDV60801.95901.json